weather station
Area: 7197 km2
The highest point: Čupec (819 m.s.l.)
Total stations: 34
Stations online: 34
Stations offline: 0
Current weather
6°C

Meteorological map - weather stations in Jihomoravský

. The meteorological maps show weather information from WARIO weather stations

Weather stations Jihomoravský

 UpdatesNameStatusTemperatureHumidityWind speedWind direction
28.10.2020 09:28Olešnice7.4 °C79.4 %1.0 m/s N
28.10.2020 09:28Archlebov8.1 °C100.0 %1.0 m/s SW
28.10.2020 09:28Boskovice10.2 °C76.6 %0.0 m/s E
28.10.2020 09:28Brno - Královo Pole5.3 °C98.2 %0.0 m/s SW
28.10.2020 09:27Brno - Líšeň6.6 °C90.1 %0.8 m/s SW
28.10.2020 09:28Brno - Střed5.5 °C98.2 %0.6 m/s W
28.10.2020 09:28Brno - Kníničky5.7 °C98.0 %0.7 m/s NE
28.10.2020 09:28Býkovice7.8 °C89.2 %0.0 m/s SW
28.10.2020 09:27Bzenec9.5 °C85.2 %0.7 m/s E
28.10.2020 09:28Litobratřice8.1 °C75.9 %1.9 m/s NW
28.10.2020 09:28Dobšice11.3 °C67.8 %1.2 m/s SE
28.10.2020 09:28Drnholec-40.0 °C23.3 %0.0 m/s SW
28.10.2020 09:28Holubice7.0 °C98.7 %1.6 m/s SW
28.10.2020 09:28Moravany7.9 °C89.2 %0.0 m/s NE
28.10.2020 09:28Lomnice8.2 °C83.8 %0.7 m/s N
28.10.2020 09:27Dolní Dubňany9.8 °C77.0 %1.0 m/s E
28.10.2020 09:28Brno - Jih6.4 °C92.5 %0.6 m/s SE
28.10.2020 09:28Svatobořice9.6 °C93.8 %0.0 m/s SE
28.10.2020 09:28Mikulov9.3 °C75.4 %0.6 m/s W
28.10.2020 09:28Moravské Bránice5.0 °C95.4 %0.0 m/s NE
28.10.2020 09:28Troubsko5.3 °C97.2 %0.0 m/s N
28.10.2020 09:28Pozořice7.2 °C94.2 %1.1 m/s SW
28.10.2020 09:28Předklášteří2.5 °C91.7 %1.1 m/s W
28.10.2020 09:28Brno - Přízřenice5.7 °C96.6 %0.9 m/s SW
28.10.2020 09:28Skalice u Znojma10.9 °C84.7 %0.0 m/s NE
28.10.2020 09:28Šlapanice7.1 °C89.2 %0.6 m/s E
28.10.2020 09:28Kuřim °C %0.0 m/s W
28.10.2020 09:28Strážnice GUMEX9.2 °C89.0 %0.0 m/s NE
28.10.2020 09:28Němčičky8.6 °C80.2 %0.0 m/s SE
28.10.2020 09:28Veselí nad Moravou9.1 °C89.0 %1.0 m/s S
28.10.2020 09:28Veselí nad Moravou10.5 °C86.9 %0.0 m/s SW
28.10.2020 09:28Vlasatice5.4 °C93.7 %1.1 m/s S
28.10.2020 09:28Rájec-Jestřebí6.0 °C100.0 %1.5 m/s SE
28.10.2020 09:28Brno - Královo Pole6.6 °C95.3 %0.7 m/s SE
Email notifications
Enter your email address to subscribe to notifications about news at warioweather.com. Your email address will not be used for any purpose other than sending these emails and will not be provided to any third party. The subscription can be ended at any time.
All data are only indicative. The portal administrator has no responsibility for potentially incorrect data and related consequences. Publishing or further sharing of content from www.warioweather.com is only allowed with written consent from WANET s.r.o.